Time;durP1;ratioP1;P1;durP2;ratioP2;P2;SDS_P1;SDS_P2;PMS_P1;PMS_P2;Temp;Humidity;BMP_temperature;BMP_pressure;BME280_temperature;BME280_humidity;BME280_pressure;Samples;Min_cycle;Max_cycle;Signal;HPM_P1;HPM_P2
2022/05/11 00:00:58;;;;;;;7.03;6.07;;;16.20;99.90;;;;;;6270388;22;21095;-69
2022/05/11 00:03:29;;;;;;;6.63;6.13;;;16.20;99.90;;;;;;6269799;22;20453;-93
2022/05/11 00:06:09;;;;;;;;;;;;;;;;;;;;;
2022/05/11 00:08:36;;;;;;;7.13;6.53;;;16.20;99.90;;;;;;6284706;22;20817;-71
2022/05/11 00:11:04;;;;;;;6.60;6.00;;;16.20;99.90;;;;;;6274527;22;20398;-71
2022/05/11 00:13:31;;;;;;;6.50;5.90;;;16.10;99.90;;;;;;6274113;22;20480;-72
2022/05/11 00:15:58;;;;;;;8.43;6.47;;;16.10;99.90;;;;;;6274679;22;20908;-72
2022/05/11 00:18:24;;;;;;;6.77;6.17;;;16.00;99.90;;;;;;6273842;22;20430;-72
2022/05/11 00:20:51;;;;;;;6.50;6.00;;;16.10;99.90;;;;;;6274224;22;20437;-71
2022/05/11 00:23:19;;;;;;;6.07;5.57;;;16.00;99.90;;;;;;6274268;22;20411;-72
2022/05/11 00:25:46;;;;;;;6.07;5.57;;;16.00;99.90;;;;;;6274468;22;20414;-71
2022/05/11 00:28:13;;;;;;;7.03;5.67;;;16.00;99.90;;;;;;6273614;22;20446;-72
2022/05/11 00:30:40;;;;;;;5.83;5.33;;;16.00;99.90;;;;;;6274387;22;21066;-71
2022/05/11 00:33:07;;;;;;;6.87;6.20;;;16.00;99.90;;;;;;6274529;22;20419;-72
2022/05/11 00:35:35;;;;;;;5.80;5.30;;;16.00;99.90;;;;;;6273856;22;20421;-72
2022/05/11 00:38:04;;;;;;;7.43;6.83;;;15.90;99.90;;;;;;6273305;22;20446;-72
2022/05/11 00:40:33;;;;;;;8.03;6.60;;;15.90;99.90;;;;;;6274353;22;21050;-72
2022/05/11 00:43:00;;;;;;;6.43;5.87;;;15.80;99.90;;;;;;6274649;22;20422;-71
2022/05/11 00:45:27;;;;;;;5.53;5.03;;;15.70;99.90;;;;;;6273992;22;20426;-72
2022/05/11 00:47:58;;;;;;;6.97;6.37;;;15.60;99.90;;;;;;6274309;22;20438;-70
2022/05/11 00:50:27;;;;;;;6.20;5.60;;;15.60;99.90;;;;;;6274157;22;20398;-70
2022/05/11 00:52:57;;;;;;;6.40;5.80;;;15.60;99.90;;;;;;6272949;22;20915;-71
2022/05/11 00:55:27;;;;;;;6.17;5.60;;;15.50;99.90;;;;;;6274175;22;20426;-71
2022/05/11 00:57:59;;;;;;;6.90;6.30;;;15.50;99.90;;;;;;6274097;22;20434;-70
2022/05/11 01:00:27;;;;;;;6.23;5.73;;;15.50;99.90;;;;;;6274304;22;20406;-71
2022/05/11 01:02:58;;;;;;;7.23;6.13;;;15.50;99.90;;;;;;6274006;22;20442;-71
2022/05/11 01:05:25;;;;;;;6.17;5.60;;;15.40;99.90;;;;;;6274037;22;20403;-71
2022/05/11 01:07:54;;;;;;;6.70;6.10;;;15.30;99.90;;;;;;6273401;22;20449;-71
2022/05/11 01:10:21;;;;;;;6.83;6.23;;;15.20;99.90;;;;;;6273193;22;20429;-70
2022/05/11 01:12:54;;;;;;;6.47;5.90;;;15.20;99.90;;;;;;6272795;22;20422;-70
2022/05/11 01:15:22;;;;;;;6.83;6.23;;;15.20;99.90;;;;;;6273573;22;20739;-70
2022/05/11 01:17:49;;;;;;;6.50;5.90;;;15.10;99.90;;;;;;6273111;22;20419;-71
2022/05/11 01:20:19;;;;;;;7.00;6.40;;;15.20;99.90;;;;;;6272888;22;20592;-70
2022/05/11 01:22:52;;;;;;;6.50;5.93;;;15.10;99.90;;;;;;6274064;22;20403;-71
2022/05/11 01:25:20;;;;;;;6.50;5.90;;;15.10;99.90;;;;;;6273811;22;20403;-70
2022/05/11 01:27:48;;;;;;;6.57;6.07;;;15.00;99.90;;;;;;6273016;22;20918;-70
2022/05/11 01:30:19;;;;;;;6.33;5.67;;;15.00;99.90;;;;;;6272966;22;20445;-70
2022/05/11 01:32:47;;;;;;;7.53;5.90;;;15.00;99.90;;;;;;6273505;22;20405;-71
2022/05/11 01:35:39;;;;;;;7.17;6.47;;;15.00;99.90;;;;;;6273213;22;20418;-71
2022/05/11 01:38:29;;;;;;;7.23;6.53;;;15.00;99.90;;;;;;6272400;22;20439;-70
2022/05/11 01:40:58;;;;;;;6.53;5.93;;;14.90;99.90;;;;;;6252961;22;20426;-70
2022/05/11 01:43:27;;;;;;;6.20;5.70;;;15.00;99.90;;;;;;6273184;22;20419;-71
2022/05/11 01:45:54;;;;;;;6.90;6.20;;;15.00;99.90;;;;;;6272447;22;20418;-70
2022/05/11 01:48:21;;;;;;;6.67;6.07;;;15.00;99.90;;;;;;6272556;22;20461;-70
2022/05/11 01:50:49;;;;;;;6.93;6.23;;;15.00;99.90;;;;;;6273181;22;20425;-70
2022/05/11 01:53:16;;;;;;;7.27;6.30;;;15.00;99.90;;;;;;6283278;22;20421;-71
2022/05/11 01:55:42;;;;;;;6.37;5.57;;;14.90;99.90;;;;;;6273669;22;20418;-71
2022/05/11 01:58:12;;;;;;;6.60;6.00;;;14.90;99.90;;;;;;6272342;22;20445;-70
2022/05/11 02:00:40;;;;;;;6.10;5.50;;;15.00;99.90;;;;;;6273570;22;20419;-70
2022/05/11 02:03:08;;;;;;;6.73;6.13;;;15.00;99.90;;;;;;6272972;22;20931;-70
2022/05/11 02:08:19;;;;;;;5.80;5.30;;;15.00;99.90;;;;;;6272357;22;20437;-70
2022/05/11 02:10:46;;;;;;;7.00;6.40;;;15.10;99.90;;;;;;6272867;22;20984;-70
2022/05/11 02:13:14;;;;;;;6.67;6.03;;;15.10;99.90;;;;;;6273479;22;20418;-70
2022/05/11 02:15:41;;;;;;;6.63;6.00;;;15.10;99.90;;;;;;6273311;22;20419;-70
2022/05/11 02:18:08;;;;;;;6.70;6.10;;;15.10;99.90;;;;;;6272357;22;20946;-70
2022/05/11 02:20:35;;;;;;;5.87;5.47;;;15.10;99.90;;;;;;6273009;22;20422;-70
2022/05/11 02:23:03;;;;;;;6.30;5.80;;;15.10;99.90;;;;;;6273194;22;20418;-70
2022/05/11 02:25:29;;;;;;;9.13;6.00;;;15.10;99.90;;;;;;6273029;22;20425;-70
2022/05/11 02:27:56;;;;;;;6.60;6.00;;;15.00;99.90;;;;;;6272885;22;20805;-70
2022/05/11 02:30:28;;;;;;;6.80;6.20;;;15.00;99.90;;;;;;6273025;22;20442;-70
2022/05/11 02:32:55;;;;;;;5.97;5.37;;;15.00;99.90;;;;;;6273616;22;20403;-70
2022/05/11 02:35:23;;;;;;;6.63;6.03;;;15.00;99.90;;;;;;6273524;22;20779;-70
2022/05/11 02:37:54;;;;;;;6.50;6.00;;;15.00;99.90;;;;;;6271446;22;20418;-71
2022/05/11 02:40:23;;;;;;;6.00;5.50;;;15.00;99.90;;;;;;6272428;22;20394;-70
2022/05/11 02:42:50;;;;;;;6.40;5.43;;;15.00;99.90;;;;;;6273179;22;20425;-71
2022/05/11 02:45:18;;;;;;;6.30;5.70;;;15.00;99.90;;;;;;6273772;22;20525;-71
2022/05/11 02:47:47;;;;;;;6.17;5.63;;;15.00;99.90;;;;;;6275272;22;20414;-70
2022/05/11 02:50:17;;;;;;;6.17;5.67;;;15.10;99.90;;;;;;6274719;22;20438;-71
2022/05/11 02:52:44;;;;;;;6.20;5.70;;;15.10;99.90;;;;;;6277545;22;20428;-70
2022/05/11 02:55:10;;;;;;;7.57;5.83;;;15.00;99.90;;;;;;6277379;22;20425;-70
2022/05/11 02:57:37;;;;;;;5.93;5.43;;;15.00;99.90;;;;;;6275170;22;20422;-70
2022/05/11 03:00:05;;;;;;;6.57;5.97;;;15.00;99.90;;;;;;6274449;22;20444;-70
2022/05/11 03:02:32;;;;;;;6.90;6.30;;;15.00;99.90;;;;;;6275067;22;20841;-71
2022/05/11 03:05:01;;;;;;;7.00;6.20;;;15.00;99.90;;;;;;6274785;22;20422;-70
2022/05/11 03:07:27;;;;;;;5.90;5.40;;;15.10;99.90;;;;;;6275351;22;20445;-70
2022/05/11 03:09:54;;;;;;;7.33;6.60;;;15.00;99.90;;;;;;6272933;22;20453;-71
2022/05/11 03:12:22;;;;;;;6.20;5.60;;;15.00;99.90;;;;;;6274545;22;20418;-70
2022/05/11 03:14:49;;;;;;;6.60;6.00;;;15.00;99.90;;;;;;6274906;22;20425;-70
2022/05/11 03:17:16;;;;;;;7.47;6.50;;;15.00;99.90;;;;;;6274762;22;20473;-70
2022/05/11 03:19:42;;;;;;;6.60;6.10;;;14.90;99.90;;;;;;6274236;22;21025;-70
2022/05/11 03:22:10;;;;;;;6.37;5.77;;;15.00;99.90;;;;;;6273384;22;20425;-70
2022/05/11 03:24:38;;;;;;;8.43;6.60;;;15.00;99.90;;;;;;6274577;22;21154;-70
2022/05/11 03:27:05;;;;;;;7.20;6.50;;;14.90;99.90;;;;;;6275111;22;20750;-70
2022/05/11 03:29:32;;;;;;;6.43;5.83;;;14.90;99.90;;;;;;6273678;22;20449;-71
2022/05/11 03:34:44;;;;;;;6.43;5.87;;;14.90;99.90;;;;;;6274194;22;20466;-70
2022/05/11 03:37:14;;;;;;;6.40;5.90;;;14.90;99.90;;;;;;6273527;22;20418;-70
2022/05/11 03:39:41;;;;;;;8.10;6.60;;;14.90;99.90;;;;;;6272701;22;20750;-71
2022/05/11 03:42:11;;;;;;;6.80;6.20;;;14.90;99.90;;;;;;6271665;22;20414;-71
2022/05/11 03:44:38;;;;;;;7.00;6.33;;;14.90;99.90;;;;;;6273931;22;20423;-71
2022/05/11 03:47:06;;;;;;;6.87;5.83;;;14.90;99.90;;;;;;6272869;22;20422;-71
2022/05/11 03:49:33;;;;;;;6.87;6.27;;;14.90;99.90;;;;;;6272265;22;20442;-71
2022/05/11 03:52:00;;;;;;;6.10;5.60;;;14.90;99.90;;;;;;6273444;22;20418;-71
2022/05/11 03:54:28;;;;;;;6.13;5.53;;;14.90;99.90;;;;;;6269997;22;20179;-72
2022/05/11 03:56:55;;;;;;;6.93;6.33;;;14.90;99.90;;;;;;6270760;22;20414;-71
2022/05/11 03:59:22;;;;;;;7.67;5.60;;;14.90;99.90;;;;;;6270460;22;20438;-72
2022/05/11 04:01:49;;;;;;;7.30;5.67;;;14.90;99.90;;;;;;6272375;22;20919;-72
2022/05/11 04:04:15;;;;;;;6.70;6.10;;;14.90;99.90;;;;;;6271371;22;20422;-71
2022/05/11 04:06:43;;;;;;;6.77;5.93;;;14.90;99.90;;;;;;6272092;22;20418;-69
2022/05/11 04:09:10;;;;;;;6.73;6.00;;;14.80;99.90;;;;;;6271040;22;20962;-71
2022/05/11 04:11:38;;;;;;;5.77;5.23;;;14.80;99.90;;;;;;6271681;22;20422;-71
2022/05/11 04:14:05;;;;;;;6.03;5.53;;;14.80;99.90;;;;;;6272794;22;20429;-71
2022/05/11 04:16:31;;;;;;;6.17;5.57;;;14.80;99.90;;;;;;6271661;22;20476;-71
2022/05/11 04:18:59;;;;;;;6.07;5.33;;;14.90;99.90;;;;;;6271381;22;20803;-70
2022/05/11 04:21:27;;;;;;;5.67;5.20;;;14.90;99.90;;;;;;6271740;22;20820;-71
2022/05/11 04:23:53;;;;;;;7.10;5.73;;;15.00;99.90;;;;;;6271910;22;20418;-71
2022/05/11 04:26:20;;;;;;;5.80;5.20;;;15.00;99.90;;;;;;6271542;22;20415;-71
2022/05/11 04:28:48;;;;;;;6.10;5.60;;;15.00;99.90;;;;;;6271112;22;20959;-71
2022/05/11 04:31:15;;;;;;;6.20;5.70;;;15.00;99.90;;;;;;6272806;22;20442;-71
2022/05/11 04:33:42;;;;;;;6.50;6.00;;;15.00;99.90;;;;;;6272661;22;20765;-71
2022/05/11 04:36:09;;;;;;;5.87;5.37;;;15.10;99.90;;;;;;6272909;22;20419;-70
2022/05/11 04:38:36;;;;;;;6.13;5.53;;;15.10;99.90;;;;;;6272200;22;20438;-71
2022/05/11 04:41:02;;;;;;;7.30;5.07;;;15.10;99.90;;;;;;6273136;22;20746;-70
2022/05/11 04:43:29;;;;;;;5.93;5.43;;;15.10;99.90;;;;;;6273611;22;20814;-71
2022/05/11 04:45:58;;;;;;;5.73;5.20;;;15.10;99.90;;;;;;6272825;22;20419;-71
2022/05/11 04:48:26;;;;;;;5.77;5.27;;;15.10;99.90;;;;;;6271506;22;20446;-71
2022/05/11 04:50:53;;;;;;;6.30;5.70;;;15.10;99.90;;;;;;6273894;22;20434;-71
2022/05/11 04:53:20;;;;;;;6.03;5.40;;;15.20;99.90;;;;;;6272924;22;20471;-71
2022/05/11 04:55:49;;;;;;;6.93;5.20;;;15.10;99.90;;;;;;6273478;22;20422;-71
2022/05/11 04:58:16;;;;;;;7.00;6.20;;;15.10;99.90;;;;;;6271631;22;20442;-71
2022/05/11 05:00:43;;;;;;;6.03;5.53;;;15.10;99.90;;;;;;6283359;22;20446;-71
2022/05/11 05:03:12;;;;;;;5.90;5.30;;;15.10;99.90;;;;;;6272792;22;20441;-71
2022/05/11 05:05:39;;;;;;;5.50;5.00;;;15.20;99.90;;;;;;6272869;22;20418;-71
2022/05/11 05:08:08;;;;;;;6.50;5.90;;;15.20;99.90;;;;;;6271942;22;20513;-71
2022/05/11 05:10:35;;;;;;;6.83;5.80;;;15.30;99.90;;;;;;6271583;22;20456;-71
2022/05/11 05:13:04;;;;;;;6.47;5.73;;;15.30;99.90;;;;;;6283419;22;20749;-72
2022/05/11 05:15:32;;;;;;;6.23;5.73;;;15.30;99.90;;;;;;6272506;22;20421;-71
2022/05/11 05:18:01;;;;;;;7.63;4.80;;;15.40;99.90;;;;;;6272298;22;20444;-71
2022/05/11 05:20:30;;;;;;;6.17;5.60;;;15.40;99.90;;;;;;6273297;22;20469;-72
2022/05/11 05:22:56;;;;;;;5.67;5.17;;;15.40;99.90;;;;;;6272712;22;20424;-71
2022/05/11 05:25:24;;;;;;;5.47;4.97;;;15.50;99.90;;;;;;6272536;22;20450;-71
2022/05/11 05:27:51;;;;;;;6.80;6.20;;;15.60;99.90;;;;;;6272114;22;20926;-71
2022/05/11 05:33:03;;;;;;;8.43;5.20;;;15.70;99.90;;;;;;6282873;22;20398;-71
2022/05/11 05:35:31;;;;;;;6.73;5.20;;;15.90;99.90;;;;;;6271531;22;20418;-71
2022/05/11 05:37:58;;;;;;;6.07;5.53;;;15.90;99.90;;;;;;6272245;22;20445;-71
2022/05/11 05:40:25;;;;;;;5.60;5.10;;;16.00;99.90;;;;;;6272340;22;20414;-72
2022/05/11 05:42:52;;;;;;;5.67;5.17;;;16.10;99.90;;;;;;6273086;22;20418;-72
2022/05/11 05:45:19;;;;;;;6.10;5.57;;;16.20;99.90;;;;;;6272176;22;20505;-71
2022/05/11 05:47:46;;;;;;;7.10;5.67;;;16.30;99.90;;;;;;6271928;22;20441;-71
2022/05/11 05:50:13;;;;;;;5.50;5.00;;;16.40;99.90;;;;;;6272243;22;20529;-72
2022/05/11 05:52:41;;;;;;;6.57;5.97;;;16.50;99.90;;;;;;6272721;22;20418;-71
2022/05/11 05:55:09;;;;;;;6.57;5.97;;;16.60;99.90;;;;;;6272625;22;20415;-72
2022/05/11 05:57:35;;;;;;;5.77;5.27;;;16.60;99.90;;;;;;6271955;22;20414;-71
2022/05/11 06:00:04;;;;;;;6.10;5.50;;;16.70;99.90;;;;;;6271539;22;20407;-72
2022/05/11 06:02:31;;;;;;;5.90;5.30;;;16.80;99.90;;;;;;6272205;22;20461;-71
2022/05/11 06:04:58;;;;;;;5.90;5.40;;;16.90;99.90;;;;;;6272378;22;20436;-72
2022/05/11 06:07:24;;;;;;;6.57;4.87;;;17.00;99.90;;;;;;6272380;22;20911;-71
2022/05/11 06:09:53;;;;;;;5.83;5.30;;;17.00;99.90;;;;;;6270760;22;20972;-71
2022/05/11 06:12:20;;;;;;;6.03;5.53;;;17.10;99.90;;;;;;6272175;22;20418;-71
2022/05/11 06:14:47;;;;;;;5.23;4.83;;;17.20;99.90;;;;;;6272437;22;20425;-71
2022/05/11 06:17:15;;;;;;;5.50;4.97;;;17.30;99.90;;;;;;6271890;22;20418;-70
2022/05/11 06:19:43;;;;;;;9.60;5.17;;;17.40;99.90;;;;;;6271475;22;20438;-71
2022/05/11 06:22:10;;;;;;;6.13;5.63;;;17.50;99.90;;;;;;6272780;22;20421;-71
2022/05/11 06:24:36;;;;;;;6.20;5.70;;;17.60;99.90;;;;;;6271796;22;20426;-72
2022/05/11 06:27:06;;;;;;;5.37;4.87;;;17.70;99.90;;;;;;6272383;22;20423;-70
2022/05/11 06:29:33;;;;;;;5.63;5.13;;;17.80;99.90;;;;;;6271491;22;20446;-71
2022/05/11 06:31:59;;;;;;;6.30;5.80;;;17.90;99.90;;;;;;6272332;22;20417;-71
2022/05/11 06:34:26;;;;;;;5.93;5.33;;;18.00;99.90;;;;;;6272225;22;20436;-71
2022/05/11 06:36:53;;;;;;;5.63;5.20;;;18.00;99.90;;;;;;6272308;22;20496;-71
2022/05/11 06:39:21;;;;;;;5.80;5.30;;;18.20;99.90;;;;;;6270493;22;20438;-70
2022/05/11 06:41:48;;;;;;;5.27;4.87;;;18.20;99.90;;;;;;6273344;22;20417;-71
2022/05/11 06:44:16;;;;;;;5.57;5.17;;;18.40;99.90;;;;;;6272246;22;20414;-71
2022/05/11 06:46:44;;;;;;;5.23;4.57;;;18.50;99.90;;;;;;6272382;22;20415;-71
2022/05/11 06:49:11;;;;;;;5.60;5.10;;;18.60;99.90;;;;;;6271015;22;20465;-71
2022/05/11 06:51:38;;;;;;;6.00;5.00;;;18.60;99.90;;;;;;6272646;22;20449;-71
2022/05/11 06:59:35;;;;;;;8.13;4.90;;;18.90;99.90;;;;;;6271332;22;20519;-72
2022/05/11 07:02:04;;;;;;;5.60;4.50;;;19.00;99.90;;;;;;6271922;22;20460;-72
2022/05/11 07:04:33;;;;;;;5.77;4.73;;;19.10;99.90;;;;;;6271980;22;20421;-72
2022/05/11 07:07:01;;;;;;;5.53;4.80;;;19.20;99.90;;;;;;6272489;22;20449;-72
2022/05/11 07:09:31;;;;;;;5.30;4.80;;;19.30;99.90;;;;;;6270769;22;20450;-72
2022/05/11 07:14:44;;;;;;;5.07;4.57;;;19.50;99.90;;;;;;6272889;22;20386;-72
2022/05/11 07:17:12;;;;;;;4.33;3.93;;;19.60;99.90;;;;;;6271822;22;20419;-72
2022/05/11 07:19:43;;;;;;;7.93;4.23;;;19.70;99.90;;;;;;6271872;22;20521;-72
2022/05/11 07:22:10;;;;;;;5.10;4.60;;;19.80;99.90;;;;;;6282645;22;20744;-72
2022/05/11 07:24:37;;;;;;;4.67;4.33;;;19.90;99.90;;;;;;6271156;22;20422;-72
2022/05/11 07:27:04;;;;;;;5.33;4.43;;;20.00;99.90;;;;;;6271536;22;20414;-72
2022/05/11 07:29:31;;;;;;;4.87;4.47;;;20.20;99.90;;;;;;6270635;22;20756;-72
2022/05/11 07:31:59;;;;;;;5.20;4.67;;;20.30;99.90;;;;;;6270617;22;20437;-72
2022/05/11 07:34:26;;;;;;;4.50;4.10;;;20.40;99.90;;;;;;6273556;22;20419;-72
2022/05/11 07:36:54;;;;;;;4.80;4.40;;;20.50;99.90;;;;;;6273547;22;20437;-73
2022/05/11 07:39:22;;;;;;;4.57;4.00;;;20.60;99.90;;;;;;6273218;22;20438;-72
2022/05/11 07:41:49;;;;;;;4.77;4.37;;;20.80;99.90;;;;;;6274200;22;20440;-72
2022/05/11 07:44:16;;;;;;;4.30;4.00;;;20.90;99.90;;;;;;6273831;22;20418;-72
2022/05/11 07:46:43;;;;;;;5.23;4.50;;;21.00;99.90;;;;;;6273228;22;20415;-72
2022/05/11 07:49:11;;;;;;;4.53;3.70;;;21.10;99.90;;;;;;6272510;22;20761;-72
2022/05/11 07:51:41;;;;;;;4.10;3.70;;;21.10;99.90;;;;;;6273342;22;20777;-72
2022/05/11 07:54:08;;;;;;;4.33;4.03;;;21.20;99.90;;;;;;6273313;22;20942;-71
2022/05/11 08:02:03;;;;;;;4.70;4.30;;;21.50;99.90;;;;;;6273423;22;20382;-72
2022/05/11 08:04:32;;;;;;;5.87;4.60;;;21.70;99.90;;;;;;6273443;22;20422;-72
2022/05/11 08:06:58;;;;;;;4.70;4.30;;;21.80;99.80;;;;;;6273858;22;20418;-72
2022/05/11 08:09:25;;;;;;;4.40;4.00;;;21.90;99.20;;;;;;6272413;22;20761;-72
2022/05/11 08:11:54;;;;;;;5.00;4.00;;;22.00;99.30;;;;;;6273661;22;20446;-72
2022/05/11 08:14:21;;;;;;;4.40;4.00;;;22.10;98.20;;;;;;6272603;22;20658;-72
2022/05/11 08:16:52;;;;;;;4.03;3.73;;;22.20;98.40;;;;;;6273990;22;20426;-71
2022/05/11 08:19:19;;;;;;;4.20;3.90;;;22.20;97.90;;;;;;6273008;22;20449;-72
2022/05/11 08:21:47;;;;;;;5.37;4.93;;;22.30;99.20;;;;;;6273355;22;20411;-72
2022/05/11 08:24:15;;;;;;;5.20;3.80;;;22.40;98.10;;;;;;6273483;22;20418;-72
2022/05/11 08:26:42;;;;;;;5.53;3.70;;;22.50;98.50;;;;;;6273127;22;20419;-72
2022/05/11 08:29:10;;;;;;;4.00;3.57;;;22.60;97.90;;;;;;6272642;22;20439;-72
2022/05/11 08:36:57;;;;;;;4.00;3.70;;;23.00;97.70;;;;;;6259122;22;20420;-70
2022/05/11 08:39:24;;;;;;;3.90;3.60;;;23.10;96.60;;;;;;6273563;22;20439;-70
2022/05/11 08:41:52;;;;;;;4.50;4.10;;;23.20;96.30;;;;;;6274035;22;20468;-70
2022/05/11 08:44:23;;;;;;;6.90;4.27;;;23.30;97.10;;;;;;6273749;22;20426;-70
2022/05/11 08:47:02;;;;;;;5.17;4.67;;;23.40;96.40;;;;;;6274218;22;20726;-69
2022/05/11 08:49:47;;;;;;;4.90;4.50;;;23.60;95.80;;;;;;6273117;22;20485;-70
2022/05/11 08:52:23;;;;;;;4.00;3.70;;;23.70;95.60;;;;;;6274097;22;20423;-71
2022/05/11 08:54:58;;;;;;;4.37;3.97;;;23.70;95.20;;;;;;6273581;22;20434;-70
2022/05/11 08:57:27;;;;;;;4.90;4.40;;;23.90;96.20;;;;;;6274220;22;20398;-70
2022/05/11 08:59:59;;;;;;;4.43;4.13;;;24.10;96.20;;;;;;6272828;22;20776;-70
2022/05/11 09:02:29;;;;;;;4.67;4.20;;;24.40;96.00;;;;;;6274239;22;20707;-71
2022/05/11 09:04:59;;;;;;;5.13;4.53;;;24.60;95.80;;;;;;6273924;22;20444;-71
2022/05/11 09:07:28;;;;;;;4.93;4.53;;;25.10;95.60;;;;;;6273966;22;20422;-71
2022/05/11 09:09:56;;;;;;;5.27;4.40;;;25.50;94.00;;;;;;6272601;22;20466;-71
2022/05/11 09:12:24;;;;;;;5.80;4.77;;;25.80;93.70;;;;;;6273709;22;20532;-71
2022/05/11 09:14:53;;;;;;;4.13;3.77;;;25.90;93.60;;;;;;6273957;22;20425;-70
2022/05/11 09:17:24;;;;;;;4.70;4.30;;;26.00;93.30;;;;;;6273868;22;20781;-70
2022/05/11 09:20:01;;;;;;;5.30;3.80;;;26.30;92.50;;;;;;6273114;22;20466;-71
2022/05/11 09:22:30;;;;;;;4.40;4.00;;;26.50;93.20;;;;;;6274052;22;20755;-72
2022/05/11 09:25:00;;;;;;;4.87;4.43;;;26.80;93.10;;;;;;6273809;22;20419;-71
2022/05/11 09:27:28;;;;;;;4.80;4.10;;;27.00;91.60;;;;;;6273747;22;20517;-70
2022/05/11 09:30:01;;;;;;;4.70;4.20;;;27.20;92.40;;;;;;6273004;22;20470;-71
2022/05/11 09:32:37;;;;;;;6.27;4.80;;;27.30;91.60;;;;;;6273872;22;20829;-71
2022/05/11 09:35:26;;;;;;;5.30;4.83;;;27.60;91.00;;;;;;6273497;22;20406;-71
2022/05/11 09:38:01;;;;;;;7.97;6.50;;;27.50;91.20;;;;;;6268186;22;20509;-70
2022/05/11 09:40:30;;;;;;;4.80;4.40;;;27.50;91.30;;;;;;6272569;22;20403;-70
2022/05/11 09:43:00;;;;;;;4.90;4.50;;;27.40;91.60;;;;;;6272858;22;20422;-71
2022/05/11 09:45:45;;;;;;;4.87;4.47;;;27.50;90.90;;;;;;6272652;22;20414;-71
2022/05/11 09:48:17;;;;;;;4.73;4.30;;;27.80;90.60;;;;;;6272378;22;20551;-71
2022/05/11 09:50:44;;;;;;;5.37;4.97;;;28.10;90.50;;;;;;6272075;22;20409;-71
2022/05/11 09:53:30;;;;;;;4.90;4.50;;;28.60;90.20;;;;;;6272432;22;20463;-70
2022/05/11 09:55:57;;;;;;;5.03;4.73;;;28.90;90.00;;;;;;6272059;22;20412;-71
2022/05/11 09:58:30;;;;;;;4.00;3.70;;;28.80;88.50;;;;;;6271652;22;20440;-71
2022/05/11 10:01:09;;;;;;;4.97;4.43;;;28.90;87.40;;;;;;6272726;22;20423;-71
2022/05/11 10:03:41;;;;;;;5.10;4.60;;;28.90;88.20;;;;;;6272526;22;20742;-71
2022/05/11 10:06:10;;;;;;;4.97;4.57;;;29.10;88.20;;;;;;6271869;22;20415;-71
2022/05/11 10:08:43;;;;;;;4.80;4.40;;;29.20;86.60;;;;;;6271830;22;20497;-71
2022/05/11 10:11:18;;;;;;;5.67;4.10;;;29.30;87.10;;;;;;6272799;22;20999;-70
2022/05/11 10:13:52;;;;;;;4.40;4.10;;;29.10;86.80;;;;;;6271958;22;20454;-71
2022/05/11 10:22:10;;;;;;;4.40;4.10;;;29.30;84.40;;;;;;6272133;22;20387;-71
2022/05/11 10:25:02;;;;;;;4.00;3.70;;;29.00;87.00;;;;;;6271877;22;20399;-71
2022/05/11 10:27:36;;;;;;;4.30;3.90;;;29.50;86.30;;;;;;6272580;22;20939;-71
2022/05/11 10:30:09;;;;;;;4.57;3.97;;;29.70;84.80;;;;;;6270993;22;20404;-71
2022/05/11 10:32:48;;;;;;;4.20;3.80;;;29.90;82.70;;;;;;6272491;22;20454;-71
2022/05/11 10:35:18;;;;;;;3.77;3.43;;;29.90;81.60;;;;;;6272125;22;20408;-71
2022/05/11 10:38:04;;;;;;;4.20;3.80;;;30.10;82.80;;;;;;6271366;22;20429;-70
2022/05/11 10:40:43;;;;;;;5.40;4.60;;;30.00;82.40;;;;;;6272983;22;20402;-71
2022/05/11 10:43:21;;;;;;;6.20;3.63;;;30.20;82.00;;;;;;6271589;22;20482;-71
2022/05/11 10:45:54;;;;;;;3.70;3.23;;;30.40;80.30;;;;;;6271824;22;20898;-71
2022/05/11 10:48:39;;;;;;;3.97;3.40;;;30.50;81.20;;;;;;6271615;22;20835;-71
2022/05/11 10:51:14;;;;;;;4.47;3.60;;;30.70;78.70;;;;;;6272319;22;20412;-71
2022/05/11 10:53:43;;;;;;;3.70;3.27;;;30.90;80.60;;;;;;6271744;22;20409;-71
2022/05/11 10:56:28;;;;;;;4.00;3.60;;;31.10;81.60;;;;;;6272338;22;20422;-71
2022/05/11 10:59:22;;;;;;;5.40;3.67;;;31.40;78.50;;;;;;6271035;22;20456;-70
2022/05/11 11:02:05;;;;;;;4.43;3.63;;;31.10;77.60;;;;;;6272102;22;20400;-70
2022/05/11 11:04:49;;;;;;;4.47;4.17;;;30.50;77.60;;;;;;6272233;22;20410;-71
2022/05/11 11:07:25;;;;;;;4.30;3.90;;;30.30;79.10;;;;;;6273913;22;20403;-71
2022/05/11 11:10:18;;;;;;;3.90;3.60;;;30.10;79.70;;;;;;6273125;22;20440;-71
2022/05/11 11:13:22;;;;;;;4.33;4.03;;;30.10;78.60;;;;;;6273789;22;20427;-71
2022/05/11 11:15:51;;;;;;;3.67;3.37;;;30.60;79.10;;;;;;6268534;22;20421;-71
2022/05/11 11:18:23;;;;;;;3.83;3.37;;;30.90;76.80;;;;;;6272532;22;20538;-71
2022/05/11 11:20:56;;;;;;;5.00;4.57;;;30.90;76.70;;;;;;6272092;22;20432;-71
2022/05/11 11:23:35;;;;;;;3.93;3.57;;;31.10;78.20;;;;;;6273449;22;20409;-70
2022/05/11 11:26:06;;;;;;;5.00;3.80;;;31.70;78.80;;;;;;6274049;22;20410;-70
2022/05/11 11:29:13;;;;;;;5.03;3.80;;;31.90;74.60;;;;;;6273002;22;20761;-70
2022/05/11 11:32:16;;;;;;;3.70;3.40;;;32.20;74.50;;;;;;6273115;22;20509;-71
2022/05/11 11:34:45;;;;;;;5.80;4.43;;;32.20;74.40;;;;;;6263150;22;20415;-70
2022/05/11 11:37:40;;;;;;;4.60;3.53;;;31.40;72.00;;;;;;6273639;22;20452;-71
2022/05/11 11:40:25;;;;;;;4.40;3.43;;;30.70;73.60;;;;;;6246277;22;21077;-70
2022/05/11 11:42:54;;;;;;;3.10;2.80;;;30.40;73.60;;;;;;6272714;22;20405;-72
2022/05/11 11:46:02;;;;;;;4.07;3.30;;;30.90;75.70;;;;;;6273310;22;20425;-71
2022/05/11 11:48:29;;;;;;;3.30;3.10;;;31.10;73.00;;;;;;6272845;22;20462;-71
2022/05/11 11:50:59;;;;;;;3.40;3.10;;;31.30;71.30;;;;;;6273307;22;20418;-72
2022/05/11 11:53:34;;;;;;;3.90;3.37;;;31.30;71.60;;;;;;6274060;22;20480;-71
2022/05/11 11:56:34;;;;;;;5.23;3.47;;;31.50;73.30;;;;;;6272945;22;20493;-71
2022/05/11 11:59:07;;;;;;;3.60;3.30;;;31.80;69.40;;;;;;6272860;22;20771;-71
2022/05/11 12:01:38;;;;;;;3.23;3.00;;;31.50;70.40;;;;;;6273611;22;20407;-71
2022/05/11 12:04:25;;;;;;;4.00;3.60;;;31.30;69.40;;;;;;6272434;22;20402;-71
2022/05/11 12:15:16;;;;;;;3.80;3.40;;;30.00;73.60;;;;;;6274061;22;20391;-71
2022/05/11 12:17:44;;;;;;;3.47;3.27;;;30.70;69.90;;;;;;6273551;22;20747;-71
2022/05/11 12:20:17;;;;;;;4.67;4.27;;;30.50;70.70;;;;;;6272293;22;20420;-71
2022/05/11 12:22:47;;;;;;;3.83;3.20;;;30.80;70.60;;;;;;6274313;22;20812;-71
2022/05/11 12:25:28;;;;;;;2.93;2.73;;;31.20;69.70;;;;;;6273521;22;20412;-71
2022/05/11 12:27:56;;;;;;;3.40;3.17;;;31.30;67.00;;;;;;6273603;22;20493;-71
2022/05/11 12:30:26;;;;;;;3.07;2.77;;;31.20;68.50;;;;;;6273180;22;20419;-71
2022/05/11 12:32:58;;;;;;;3.73;2.83;;;31.40;70.30;;;;;;6273102;22;20867;-70
2022/05/11 12:35:29;;;;;;;3.00;2.80;;;31.70;66.50;;;;;;6273289;22;20983;-70
2022/05/11 12:37:59;;;;;;;5.27;3.07;;;31.50;65.60;;;;;;6272214;22;20455;-71
2022/05/11 12:40:27;;;;;;;3.87;2.87;;;31.10;65.10;;;;;;6273994;22;20423;-71
2022/05/11 12:42:56;;;;;;;5.10;3.47;;;30.40;65.50;;;;;;6273111;22;20419;-70
2022/05/11 12:45:27;;;;;;;5.83;3.37;;;29.90;66.10;;;;;;6273711;22;20420;-71
2022/05/11 12:47:58;;;;;;;6.10;2.80;;;29.80;67.20;;;;;;6273336;22;20515;-71
2022/05/11 12:50:28;;;;;;;2.87;2.50;;;29.90;66.40;;;;;;6273390;22;20412;-71
2022/05/11 12:53:06;;;;;;;3.00;2.80;;;30.10;66.70;;;;;;6273814;22;20434;-71
2022/05/11 12:55:35;;;;;;;3.40;3.10;;;30.10;67.80;;;;;;6273721;22;20404;-70
2022/05/11 12:58:03;;;;;;;3.90;2.53;;;30.20;66.50;;;;;;6272756;22;20469;-70
2022/05/11 13:00:33;;;;;;;4.37;2.90;;;30.30;64.90;;;;;;6273848;22;20419;-71
2022/05/11 13:03:17;;;;;;;3.40;3.10;;;30.60;65.30;;;;;;6273837;22;20412;-70
2022/05/11 13:05:44;;;;;;;2.63;2.43;;;30.80;66.80;;;;;;6272688;22;20418;-70
2022/05/11 13:08:14;;;;;;;2.90;2.70;;;30.80;64.60;;;;;;6272824;22;20524;-70
2022/05/11 13:10:41;;;;;;;3.20;2.80;;;31.00;65.30;;;;;;6273540;22;20441;-70
2022/05/11 13:13:15;;;;;;;3.30;2.90;;;31.20;65.70;;;;;;6273197;22;20529;-71
2022/05/11 13:15:45;;;;;;;3.07;2.87;;;31.00;65.50;;;;;;6273999;22;20486;-71
2022/05/11 13:18:24;;;;;;;3.90;3.00;;;31.00;63.60;;;;;;6269412;22;20439;-70
2022/05/11 13:20:53;;;;;;;4.40;2.90;;;30.90;65.40;;;;;;6272694;22;20400;-70
2022/05/11 13:23:33;;;;;;;10.47;3.00;;;30.90;65.60;;;;;;6273633;22;20421;-71
2022/05/11 13:26:02;;;;;;;3.43;3.17;;;30.50;65.00;;;;;;6273018;22;20410;-70
2022/05/11 13:28:32;;;;;;;2.93;2.57;;;30.50;65.10;;;;;;6272326;22;20463;-71
2022/05/11 13:31:00;;;;;;;2.97;2.70;;;30.70;65.80;;;;;;6273376;22;20443;-70
2022/05/11 13:33:43;;;;;;;3.40;3.00;;;30.90;63.50;;;;;;6272498;22;20449;-72
2022/05/11 13:36:16;;;;;;;5.00;3.10;;;30.80;66.00;;;;;;6272964;22;20423;-70
2022/05/11 13:39:02;;;;;;;3.70;3.00;;;30.70;65.00;;;;;;6272145;22;20501;-71
2022/05/11 13:41:34;;;;;;;3.13;2.90;;;30.70;63.20;;;;;;6273601;22;20410;-71
2022/05/11 13:44:07;;;;;;;2.97;2.67;;;30.60;63.60;;;;;;6272379;22;20402;-71
2022/05/11 13:49:33;;;;;;;2.97;2.67;;;30.50;63.20;;;;;;6270701;22;20523;-70